createdAt,value
2022-08-25T00:01:50.746Z,20.90
2022-08-25T00:04:21.273Z,20.90
2022-08-25T00:06:53.080Z,20.90
2022-08-25T00:09:24.983Z,20.90
2022-08-25T00:11:54.084Z,20.90
2022-08-25T00:14:28.579Z,20.90
2022-08-25T00:16:57.626Z,20.90
2022-08-25T00:19:28.773Z,20.80
2022-08-25T00:21:58.057Z,20.80
2022-08-25T00:24:27.128Z,20.70
2022-08-25T00:26:58.104Z,20.70
2022-08-25T00:29:29.144Z,20.70
2022-08-25T00:31:58.246Z,20.60
2022-08-25T00:34:29.906Z,20.60
2022-08-25T00:36:58.790Z,20.50
2022-08-25T00:39:28.270Z,20.50
2022-08-25T00:41:59.170Z,20.50
2022-08-25T00:44:32.682Z,20.60
2022-08-25T00:47:03.919Z,20.50
2022-08-25T00:49:37.291Z,20.50
2022-08-25T00:52:09.063Z,20.50
2022-08-25T00:54:42.270Z,20.50
2022-08-25T00:57:13.587Z,20.60
2022-08-25T00:59:44.645Z,20.60
2022-08-25T01:02:14.770Z,20.60
2022-08-25T01:04:48.981Z,20.60
2022-08-25T01:07:20.681Z,20.70
2022-08-25T01:09:53.566Z,20.60
2022-08-25T01:12:23.277Z,20.70
2022-08-25T01:14:55.102Z,20.80
2022-08-25T01:17:28.045Z,20.80
2022-08-25T01:19:56.993Z,20.90
2022-08-25T01:22:27.399Z,20.90
2022-08-25T01:25:04.200Z,20.80
2022-08-25T01:27:32.834Z,20.70
2022-08-25T01:30:01.716Z,20.70
2022-08-25T01:32:30.425Z,20.70
2022-08-25T01:34:59.157Z,20.70
2022-08-25T01:37:29.275Z,20.70
2022-08-25T01:39:58.006Z,20.70
2022-08-25T01:42:39.965Z,20.70
2022-08-25T01:45:10.564Z,20.60
2022-08-25T01:47:39.795Z,20.60
2022-08-25T01:50:09.397Z,20.60
2022-08-25T01:52:48.922Z,20.60
2022-08-25T01:55:17.919Z,20.60
2022-08-25T01:57:46.608Z,20.60
2022-08-25T02:00:17.121Z,20.50
2022-08-25T02:02:45.836Z,20.50
2022-08-25T02:05:20.326Z,20.50
2022-08-25T02:07:53.911Z,20.50
2022-08-25T02:10:22.708Z,20.40
2022-08-25T02:12:53.092Z,20.30
2022-08-25T02:15:23.427Z,20.30
2022-08-25T02:17:52.125Z,20.30
2022-08-25T02:20:20.794Z,20.30
2022-08-25T02:22:53.004Z,20.30
2022-08-25T02:25:27.140Z,20.20
2022-08-25T02:27:55.865Z,20.10
2022-08-25T02:30:24.877Z,20.10
2022-08-25T02:32:53.589Z,20.20
2022-08-25T02:35:22.649Z,20.20
2022-08-25T02:37:52.663Z,20.20
2022-08-25T02:40:23.796Z,20.20
2022-08-25T02:42:54.051Z,20.20
2022-08-25T02:45:23.017Z,20.20
2022-08-25T02:47:51.984Z,20.10
2022-08-25T02:50:20.846Z,20.00
2022-08-25T02:52:50.970Z,20.00
2022-08-25T02:55:20.802Z,20.00
2022-08-25T02:57:49.569Z,20.00
2022-08-25T03:00:20.328Z,20.00
2022-08-25T03:02:49.041Z,20.00
2022-08-25T03:05:18.136Z,20.00
2022-08-25T03:07:46.874Z,20.00
2022-08-25T03:10:19.927Z,20.00
2022-08-25T03:12:48.962Z,19.90
2022-08-25T03:15:19.763Z,20.00
2022-08-25T03:17:50.601Z,20.00
2022-08-25T03:20:20.186Z,20.00
2022-08-25T03:22:49.252Z,20.00
2022-08-25T03:25:35.257Z,20.00
2022-08-25T03:28:05.203Z,19.90
2022-08-25T03:30:35.994Z,19.90
2022-08-25T03:33:04.870Z,19.90
2022-08-25T03:35:33.534Z,19.90
2022-08-25T03:38:02.394Z,19.90
2022-08-25T03:40:31.369Z,19.90
2022-08-25T03:43:00.372Z,19.90
2022-08-25T03:45:29.212Z,20.00
2022-08-25T03:47:59.692Z,19.90
2022-08-25T03:50:28.367Z,20.00
2022-08-25T03:52:58.346Z,20.00
2022-08-25T03:55:27.757Z,20.00
2022-08-25T03:57:57.733Z,20.10
2022-08-25T04:00:26.398Z,20.00
2022-08-25T04:02:55.027Z,20.10
2022-08-25T04:05:25.060Z,20.10
2022-08-25T04:07:56.114Z,20.10
2022-08-25T04:10:24.969Z,20.00
2022-08-25T04:12:53.664Z,20.00
2022-08-25T04:15:22.281Z,20.00
2022-08-25T04:17:51.967Z,19.90
2022-08-25T04:20:24.454Z,20.00
2022-08-25T04:22:53.118Z,19.90
2022-08-25T04:25:21.889Z,19.90
2022-08-25T04:27:51.015Z,19.90
2022-08-25T04:30:19.953Z,19.90
2022-08-25T04:32:49.443Z,20.00
2022-08-25T04:35:18.418Z,20.00
2022-08-25T04:37:49.082Z,20.00
2022-08-25T04:40:17.914Z,19.90
2022-08-25T04:42:48.223Z,20.00
2022-08-25T04:45:17.170Z,20.10
2022-08-25T04:47:46.270Z,20.10
2022-08-25T04:50:14.899Z,20.20
2022-08-25T04:52:43.604Z,20.20
2022-08-25T04:55:13.713Z,20.30
2022-08-25T04:57:42.370Z,20.40
2022-08-25T05:00:13.162Z,20.40
2022-08-25T05:02:41.841Z,20.50
2022-08-25T05:05:10.521Z,20.50
2022-08-25T05:07:39.435Z,20.50
2022-08-25T05:10:09.351Z,20.60
2022-08-25T05:12:39.573Z,20.70
2022-08-25T05:15:24.604Z,20.70
2022-08-25T05:17:55.973Z,20.70
2022-08-25T05:20:25.379Z,20.80
2022-08-25T05:22:54.311Z,20.90
2022-08-25T05:25:23.029Z,20.90
2022-08-25T05:27:53.138Z,21.00
2022-08-25T05:30:21.875Z,21.00
2022-08-25T05:32:50.533Z,21.10
2022-08-25T05:35:20.065Z,21.10
2022-08-25T05:37:49.067Z,21.20
2022-08-25T05:40:17.836Z,21.30
2022-08-25T05:42:46.424Z,21.30
2022-08-25T05:45:17.392Z,21.40
2022-08-25T05:47:49.464Z,21.40
2022-08-25T05:50:19.050Z,21.50
2022-08-25T05:52:47.900Z,21.60
2022-08-25T05:55:16.828Z,21.70
2022-08-25T05:57:45.577Z,21.60
2022-08-25T06:00:17.457Z,21.60
2022-08-25T06:02:46.591Z,21.60
2022-08-25T06:05:17.677Z,21.60
2022-08-25T06:07:47.018Z,21.80
2022-08-25T06:10:16.854Z,21.90
2022-08-25T06:12:46.718Z,22.00
2022-08-25T06:15:18.707Z,22.00
2022-08-25T06:17:48.293Z,22.00
2022-08-25T06:20:19.427Z,22.10
2022-08-25T06:22:51.195Z,22.30
2022-08-25T06:25:22.326Z,22.50
2022-08-25T06:27:51.382Z,22.70
2022-08-25T06:30:28.676Z,23.00
2022-08-25T06:32:57.726Z,23.20
2022-08-25T06:35:26.376Z,23.20
2022-08-25T06:37:55.019Z,23.40
2022-08-25T06:40:24.580Z,23.50
2022-08-25T06:42:53.519Z,23.70
2022-08-25T06:45:23.573Z,23.90
2022-08-25T06:47:53.114Z,24.10
2022-08-25T06:50:21.930Z,24.00
2022-08-25T06:52:52.101Z,24.20
2022-08-25T06:55:21.203Z,24.70
2022-08-25T06:57:49.903Z,25.00
2022-08-25T07:00:19.000Z,25.20
2022-08-25T07:02:49.016Z,25.70
2022-08-25T07:05:33.552Z,26.10
2022-08-25T07:08:02.673Z,26.10
2022-08-25T07:10:31.690Z,26.20
2022-08-25T07:13:00.310Z,26.20
2022-08-25T07:15:28.940Z,26.40
2022-08-25T07:17:59.541Z,26.80
2022-08-25T07:20:29.521Z,26.90
2022-08-25T07:22:59.224Z,27.00
2022-08-25T07:25:28.034Z,27.10
2022-08-25T07:27:59.052Z,27.40
2022-08-25T07:30:28.447Z,27.40
2022-08-25T07:32:58.444Z,27.80
2022-08-25T07:35:27.554Z,28.20
2022-08-25T07:38:10.148Z,28.50
2022-08-25T07:40:42.737Z,28.30
2022-08-25T07:43:11.864Z,28.10
2022-08-25T07:45:49.167Z,28.00
2022-08-25T07:48:20.804Z,28.20
2022-08-25T07:50:49.989Z,28.50
2022-08-25T07:53:19.334Z,28.70
2022-08-25T07:55:47.920Z,28.80
2022-08-25T07:58:16.788Z,28.60
2022-08-25T08:00:48.800Z,28.70
2022-08-25T08:03:42.198Z,29.10
2022-08-25T08:06:11.779Z,30.30
2022-08-25T08:08:43.527Z,31.10
2022-08-25T08:11:18.210Z,31.80
2022-08-25T08:13:48.215Z,32.30
2022-08-25T08:16:20.933Z,32.50
2022-08-25T08:18:51.665Z,33.20
2022-08-25T08:21:22.758Z,34.00
2022-08-25T08:23:58.076Z,34.60
2022-08-25T08:26:48.221Z,34.90
2022-08-25T08:29:17.329Z,35.70
2022-08-25T08:31:48.752Z,35.90
2022-08-25T08:34:19.486Z,36.50
2022-08-25T08:36:53.813Z,37.20
2022-08-25T08:39:23.300Z,37.70
2022-08-25T08:42:20.927Z,38.40
2022-08-25T08:45:17.543Z,38.30
2022-08-25T08:47:56.485Z,38.30
2022-08-25T08:50:33.906Z,38.80
2022-08-25T08:53:09.456Z,38.50
2022-08-25T08:55:41.363Z,39.50
2022-08-25T08:58:17.999Z,40.20
2022-08-25T09:00:52.463Z,40.50
2022-08-25T09:03:35.430Z,40.10
2022-08-25T09:06:09.268Z,40.00
2022-08-25T09:08:44.568Z,39.70
2022-08-25T09:11:20.463Z,39.80
2022-08-25T09:14:20.200Z,39.70
2022-08-25T09:16:59.049Z,39.70
2022-08-25T09:19:48.633Z,39.20
2022-08-25T09:22:36.383Z,38.10
2022-08-25T09:25:14.533Z,37.00
2022-08-25T09:27:55.136Z,36.60
2022-08-25T09:30:25.187Z,36.80
2022-08-25T09:33:05.306Z,37.20
2022-08-25T09:35:37.838Z,36.70
2022-08-25T09:38:10.303Z,36.00
2022-08-25T09:40:42.528Z,35.20
2022-08-25T09:43:23.119Z,35.40
2022-08-25T09:46:01.312Z,35.60
2022-08-25T09:48:40.592Z,35.80
2022-08-25T09:51:22.067Z,36.10
2022-08-25T09:53:57.130Z,36.50
2022-08-25T09:56:28.167Z,36.40
2022-08-25T09:59:03.018Z,37.10
2022-08-25T10:01:34.806Z,38.50
2022-08-25T10:04:05.691Z,39.20
2022-08-25T10:06:45.842Z,39.80
2022-08-25T10:09:29.671Z,40.00
2022-08-25T10:12:01.332Z,40.30
2022-08-25T10:14:36.488Z,40.30
2022-08-25T10:17:27.384Z,41.00
2022-08-25T10:20:16.444Z,42.00
2022-08-25T10:22:48.272Z,43.00
2022-08-25T10:25:31.382Z,43.80
2022-08-25T10:28:12.702Z,44.80
2022-08-25T10:30:55.916Z,44.60
2022-08-25T10:33:34.184Z,44.60
2022-08-25T10:36:10.799Z,44.90
2022-08-25T10:38:43.285Z,44.40
2022-08-25T10:41:44.092Z,44.30
2022-08-25T10:44:40.524Z,44.40
2022-08-25T10:47:29.906Z,45.00
2022-08-25T10:50:05.645Z,45.70
2022-08-25T10:52:40.672Z,46.90
2022-08-25T10:55:18.690Z,47.50
2022-08-25T10:57:57.852Z,47.60
2022-08-25T11:00:35.822Z,47.50
2022-08-25T11:03:19.286Z,47.10
2022-08-25T11:05:52.636Z,46.90
2022-08-25T11:08:33.832Z,45.90
2022-08-25T11:11:14.281Z,45.70
2022-08-25T11:13:54.653Z,46.50
2022-08-25T11:16:33.379Z,46.60
2022-08-25T11:19:08.692Z,46.70
2022-08-25T11:21:46.050Z,47.50
2022-08-25T11:24:31.292Z,47.30
2022-08-25T11:27:01.216Z,45.70
2022-08-25T11:29:37.051Z,45.50
2022-08-25T11:32:08.916Z,44.70
2022-08-25T11:34:43.623Z,45.30
2022-08-25T11:37:21.813Z,46.00
2022-08-25T11:40:22.697Z,46.10
2022-08-25T11:43:24.607Z,46.50
2022-08-25T11:46:21.173Z,47.60
2022-08-25T11:49:04.834Z,46.90
2022-08-25T11:51:42.220Z,46.10
2022-08-25T11:54:21.285Z,45.60
2022-08-25T11:56:58.153Z,45.60
2022-08-25T12:00:09.547Z,45.70
2022-08-25T12:02:42.777Z,45.20
2022-08-25T12:05:33.627Z,44.60
2022-08-25T12:08:31.887Z,45.40
2022-08-25T12:11:07.163Z,45.50
2022-08-25T12:13:45.960Z,44.90
2022-08-25T12:16:47.702Z,44.10
2022-08-25T12:19:49.909Z,43.90
2022-08-25T12:22:44.495Z,43.80
2022-08-25T12:25:40.275Z,44.00
2022-08-25T12:28:35.393Z,44.50
2022-08-25T12:31:11.231Z,45.10
2022-08-25T12:33:49.590Z,45.10
2022-08-25T12:36:36.043Z,44.10
2022-08-25T12:39:24.616Z,44.80
2022-08-25T12:45:07.171Z,46.70
2022-08-25T12:47:37.767Z,46.50
2022-08-25T12:50:33.459Z,46.90
2022-08-25T12:53:13.651Z,46.30
2022-08-25T12:55:48.777Z,47.00
2022-08-25T12:58:18.123Z,47.00
2022-08-25T13:01:15.670Z,46.90
2022-08-25T13:04:48.337Z,47.20
2022-08-25T13:07:31.498Z,47.00
2022-08-25T13:10:19.949Z,46.70
2022-08-25T13:12:56.857Z,46.00
2022-08-25T13:15:38.538Z,45.10
2022-08-25T13:18:21.055Z,44.90
2022-08-25T13:20:55.169Z,45.60
2022-08-25T13:23:29.146Z,46.10
2022-08-25T13:26:02.532Z,45.20
2022-08-25T13:28:40.728Z,44.20
2022-08-25T13:31:19.446Z,44.00
2022-08-25T13:33:58.232Z,43.10
2022-08-25T13:36:52.036Z,42.60
2022-08-25T13:39:52.849Z,42.40
2022-08-25T13:42:23.959Z,42.20
2022-08-25T13:44:59.531Z,42.90
2022-08-25T13:47:43.647Z,42.00
2022-08-25T13:50:34.243Z,41.40
2022-08-25T13:53:11.338Z,41.90
2022-08-25T13:55:50.989Z,42.10
2022-08-25T13:58:34.325Z,41.50
2022-08-25T14:01:19.927Z,40.10
2022-08-25T14:04:32.798Z,39.70
2022-08-25T14:07:34.024Z,39.50
2022-08-25T14:10:07.190Z,39.30
2022-08-25T14:12:39.951Z,39.00
2022-08-25T14:15:13.223Z,39.20
2022-08-25T14:17:49.429Z,40.30
2022-08-25T14:20:28.385Z,41.70
2022-08-25T14:23:09.849Z,42.60
2022-08-25T14:25:40.760Z,42.00
2022-08-25T14:28:16.570Z,41.50
2022-08-25T14:30:51.671Z,40.30
2022-08-25T14:33:27.994Z,40.70
2022-08-25T14:36:03.020Z,41.00
2022-08-25T14:38:33.725Z,41.20
2022-08-25T14:43:37.284Z,41.80
2022-08-25T14:46:15.409Z,41.50
2022-08-25T14:48:49.459Z,41.30
2022-08-25T14:51:20.720Z,41.40
2022-08-25T14:53:52.678Z,41.90
2022-08-25T14:56:25.914Z,42.30
2022-08-25T14:59:00.626Z,42.50
2022-08-25T15:01:36.310Z,42.20
2022-08-25T15:04:15.731Z,42.40
2022-08-25T15:06:47.918Z,41.60
2022-08-25T15:09:19.210Z,41.20
2022-08-25T15:11:59.422Z,40.40
2022-08-25T15:14:35.541Z,40.40
2022-08-25T15:17:08.712Z,40.70
2022-08-25T15:19:44.662Z,40.90
2022-08-25T15:22:29.750Z,40.80
2022-08-25T15:25:26.788Z,40.20
2022-08-25T15:28:03.307Z,39.00
2022-08-25T15:30:53.604Z,38.20
2022-08-25T15:33:34.392Z,37.60
2022-08-25T15:36:16.965Z,36.80
2022-08-25T15:39:02.729Z,35.90
2022-08-25T15:41:45.056Z,35.40
2022-08-25T15:44:17.030Z,34.80
2022-08-25T15:46:57.406Z,34.60
2022-08-25T15:49:33.871Z,34.50
2022-08-25T15:52:46.665Z,34.10
2022-08-25T15:55:29.124Z,33.40
2022-08-25T15:57:59.264Z,33.00
2022-08-25T16:00:31.806Z,32.40
2022-08-25T16:07:35.103Z,31.60
2022-08-25T16:11:32.053Z,31.20
2022-08-25T16:17:28.448Z,31.00
2022-08-25T16:20:25.043Z,31.10
2022-08-25T16:23:11.655Z,31.00
2022-08-25T16:29:09.580Z,31.00
2022-08-25T16:31:41.625Z,30.70
2022-08-25T16:34:15.004Z,30.50
2022-08-25T16:40:10.599Z,30.50
2022-08-25T16:42:41.867Z,30.30
2022-08-25T16:45:16.363Z,30.20
2022-08-25T16:48:24.585Z,30.10
2022-08-25T16:55:02.502Z,29.80
2022-08-25T16:58:18.523Z,29.70
2022-08-25T17:01:20.823Z,29.70
2022-08-25T17:03:54.642Z,29.70
2022-08-25T17:06:28.404Z,29.80
2022-08-25T17:08:58.494Z,29.60
2022-08-25T17:11:30.662Z,29.60
2022-08-25T17:14:10.960Z,29.40
2022-08-25T17:16:40.225Z,29.40
2022-08-25T17:19:15.865Z,29.20
2022-08-25T17:22:14.839Z,29.00
2022-08-25T17:25:15.054Z,28.90
2022-08-25T17:28:03.189Z,28.80
2022-08-25T17:31:31.975Z,28.80
2022-08-25T17:34:33.830Z,28.80
2022-08-25T17:37:29.904Z,28.90
2022-08-25T17:40:26.546Z,28.60
2022-08-25T17:43:04.366Z,28.50
2022-08-25T17:45:46.721Z,28.60
2022-08-25T17:48:27.503Z,28.60
2022-08-25T17:50:57.444Z,28.50
2022-08-25T17:53:55.083Z,28.50
2022-08-25T17:56:36.562Z,28.50
2022-08-25T17:59:33.759Z,28.50
2022-08-25T18:02:12.521Z,28.40
2022-08-25T18:04:57.955Z,28.40
2022-08-25T18:08:52.240Z,28.30
2022-08-25T18:11:30.096Z,28.20
2022-08-25T18:14:10.838Z,28.20
2022-08-25T18:16:42.217Z,28.10
2022-08-25T18:19:14.334Z,28.10
2022-08-25T18:22:21.167Z,28.10
2022-08-25T18:28:40.129Z,28.00
2022-08-25T18:31:14.154Z,27.80
2022-08-25T18:33:45.539Z,27.70
2022-08-25T18:36:17.407Z,27.70
2022-08-25T18:39:05.536Z,27.50
2022-08-25T18:41:38.245Z,27.40
2022-08-25T18:44:07.627Z,27.20
2022-08-25T18:46:37.114Z,27.00
2022-08-25T18:49:06.243Z,27.10
2022-08-25T18:51:36.940Z,27.20
2022-08-25T18:54:06.632Z,27.30
2022-08-25T18:56:36.990Z,27.20
2022-08-25T18:59:05.909Z,27.20
2022-08-25T19:01:35.828Z,27.10
2022-08-25T19:04:05.584Z,27.20
2022-08-25T19:06:37.892Z,27.10
2022-08-25T19:09:07.545Z,27.10
2022-08-25T19:11:36.451Z,26.90
2022-08-25T19:14:12.222Z,26.70
2022-08-25T19:16:43.891Z,26.60
2022-08-25T19:19:14.001Z,26.40
2022-08-25T19:21:44.738Z,26.30
2022-08-25T19:24:17.732Z,26.20
2022-08-25T19:26:49.581Z,26.00
2022-08-25T19:29:21.477Z,26.00
2022-08-25T19:31:51.236Z,25.90
2022-08-25T19:34:28.235Z,26.00
2022-08-25T19:37:03.085Z,26.00
2022-08-25T19:39:35.527Z,26.00
2022-08-25T19:42:37.224Z,26.10
2022-08-25T19:44:59.446Z,25.90
2022-08-25T19:47:30.059Z,25.70
2022-08-25T19:50:01.206Z,25.70
2022-08-25T19:52:31.948Z,25.80
2022-08-25T19:55:04.593Z,25.80
2022-08-25T19:57:42.790Z,25.80
2022-08-25T20:00:16.142Z,25.80
2022-08-25T20:02:46.535Z,25.70
2022-08-25T20:05:23.845Z,25.70
2022-08-25T20:07:56.775Z,25.60
2022-08-25T20:10:28.448Z,25.60
2022-08-25T20:12:57.634Z,25.60
2022-08-25T20:15:27.657Z,25.60
2022-08-25T20:17:56.918Z,25.60
2022-08-25T20:20:32.416Z,25.60
2022-08-25T20:23:19.305Z,25.60
2022-08-25T20:25:48.700Z,25.50
2022-08-25T20:28:19.305Z,25.40
2022-08-25T20:30:48.506Z,25.30
2022-08-25T20:33:22.916Z,25.30
2022-08-25T20:35:53.011Z,25.30
2022-08-25T20:38:23.975Z,25.20
2022-08-25T20:40:53.024Z,25.20
2022-08-25T20:43:22.080Z,25.10
2022-08-25T20:45:51.424Z,25.00
2022-08-25T20:48:20.343Z,25.00
2022-08-25T20:50:54.359Z,24.90
2022-08-25T20:53:28.284Z,24.90
2022-08-25T20:55:57.880Z,24.90
2022-08-25T20:58:26.748Z,24.90
2022-08-25T21:00:55.656Z,24.80
2022-08-25T21:03:24.821Z,24.70
2022-08-25T21:05:54.207Z,24.50
2022-08-25T21:08:23.651Z,24.40
2022-08-25T21:10:54.073Z,24.40
2022-08-25T21:13:22.937Z,24.10
2022-08-25T21:15:51.808Z,24.10
2022-08-25T21:18:20.963Z,24.10
2022-08-25T21:20:49.776Z,24.20
2022-08-25T21:23:18.839Z,24.20
2022-08-25T21:25:47.637Z,24.20
2022-08-25T21:28:18.230Z,24.20
2022-08-25T21:30:50.322Z,24.20
2022-08-25T21:33:19.124Z,24.10
2022-08-25T21:35:48.145Z,24.10
2022-08-25T21:38:18.089Z,24.10
2022-08-25T21:40:46.804Z,24.10
2022-08-25T21:43:18.933Z,24.10
2022-08-25T21:45:47.701Z,24.00
2022-08-25T21:48:16.990Z,23.80
2022-08-25T21:50:45.675Z,23.90
2022-08-25T21:53:14.502Z,23.90
2022-08-25T21:55:45.529Z,23.90
2022-08-25T21:58:14.241Z,23.90
2022-08-25T22:00:44.935Z,23.80
2022-08-25T22:03:13.727Z,23.80
2022-08-25T22:05:45.600Z,23.80
2022-08-25T22:08:14.533Z,23.70
2022-08-25T22:10:45.839Z,23.70
2022-08-25T22:13:14.607Z,23.70
2022-08-25T22:15:44.802Z,23.60
2022-08-25T22:18:13.552Z,23.70
2022-08-25T22:20:42.331Z,23.60
2022-08-25T22:23:11.138Z,23.60
2022-08-25T22:25:49.136Z,23.60
2022-08-25T22:28:18.441Z,23.60
2022-08-25T22:30:48.808Z,23.50
2022-08-25T22:33:17.817Z,23.40
2022-08-25T22:35:46.747Z,23.40
2022-08-25T22:38:15.873Z,23.40
2022-08-25T22:40:45.579Z,23.40
2022-08-25T22:43:15.339Z,23.40
2022-08-25T22:45:44.334Z,23.40
2022-08-25T22:48:14.599Z,23.40
2022-08-25T22:50:43.421Z,23.40
2022-08-25T22:53:13.337Z,23.40
2022-08-25T22:55:45.594Z,23.30
2022-08-25T22:58:15.350Z,23.30
2022-08-25T23:00:44.055Z,23.30
2022-08-25T23:03:14.331Z,23.20
2022-08-25T23:05:43.080Z,23.10
2022-08-25T23:08:11.729Z,23.10
2022-08-25T23:10:40.567Z,23.10
2022-08-25T23:13:09.300Z,23.00
2022-08-25T23:15:38.199Z,23.00
2022-08-25T23:18:08.060Z,22.90
2022-08-25T23:20:55.911Z,22.90
2022-08-25T23:23:25.839Z,22.80
2022-08-25T23:25:55.380Z,22.80
2022-08-25T23:28:24.055Z,22.80
2022-08-25T23:30:59.359Z,22.80
2022-08-25T23:33:28.749Z,22.80
2022-08-25T23:36:04.345Z,22.80
2022-08-25T23:38:33.305Z,22.80
2022-08-25T23:41:07.627Z,22.80
2022-08-25T23:43:38.473Z,22.80
2022-08-25T23:46:08.176Z,22.70
2022-08-25T23:48:36.937Z,22.70
2022-08-25T23:51:07.833Z,22.70
2022-08-25T23:53:36.940Z,22.60
2022-08-25T23:56:06.711Z,22.60
2022-08-25T23:58:36.137Z,22.50
